sensor_id;sensor_type;location;lat;lon;timestamp;P1;durP1;ratioP1;P2;durP2;ratioP2
62696;SDS011;48761;42.680;23.312;2023-05-07T00:02:06;19.90;;;13.57;;
62696;SDS011;48761;42.680;23.312;2023-05-07T00:04:32;18.60;;;13.00;;
62696;SDS011;48761;42.680;23.312;2023-05-07T00:06:58;19.02;;;12.63;;
62696;SDS011;48761;42.680;23.312;2023-05-07T00:09:24;18.98;;;12.07;;
62696;SDS011;48761;42.680;23.312;2023-05-07T00:11:50;16.77;;;11.65;;
62696;SDS011;48761;42.680;23.312;2023-05-07T00:14:16;17.88;;;11.27;;
62696;SDS011;48761;42.680;23.312;2023-05-07T00:16:42;21.65;;;11.30;;
62696;SDS011;48761;42.680;23.312;2023-05-07T00:19:08;16.95;;;10.88;;
62696;SDS011;48761;42.680;23.312;2023-05-07T00:21:34;24.33;;;11.65;;
62696;SDS011;48761;42.680;23.312;2023-05-07T00:23:59;16.42;;;10.75;;
62696;SDS011;48761;42.680;23.312;2023-05-07T00:26:25;20.67;;;11.32;;
62696;SDS011;48761;42.680;23.312;2023-05-07T00:28:51;13.68;;;11.00;;
62696;SDS011;48761;42.680;23.312;2023-05-07T00:31:18;18.52;;;10.90;;
62696;SDS011;48761;42.680;23.312;2023-05-07T00:33:44;18.13;;;11.18;;
62696;SDS011;48761;42.680;23.312;2023-05-07T00:36:10;15.07;;;10.48;;
62696;SDS011;48761;42.680;23.312;2023-05-07T00:38:36;19.30;;;10.98;;
62696;SDS011;48761;42.680;23.312;2023-05-07T00:41:02;13.80;;;10.43;;
62696;SDS011;48761;42.680;23.312;2023-05-07T00:43:28;15.90;;;11.68;;
62696;SDS011;48761;42.680;23.312;2023-05-07T00:45:54;17.85;;;11.45;;
62696;SDS011;48761;42.680;23.312;2023-05-07T00:48:20;20.38;;;12.35;;
62696;SDS011;48761;42.680;23.312;2023-05-07T00:50:46;20.05;;;12.00;;
62696;SDS011;48761;42.680;23.312;2023-05-07T00:53:13;17.65;;;13.15;;
62696;SDS011;48761;42.680;23.312;2023-05-07T00:55:39;19.05;;;13.48;;
62696;SDS011;48761;42.680;23.312;2023-05-07T00:58:05;20.42;;;12.52;;
62696;SDS011;48761;42.680;23.312;2023-05-07T01:00:32;26.52;;;12.80;;
62696;SDS011;48761;42.680;23.312;2023-05-07T01:02:58;20.67;;;12.75;;
62696;SDS011;48761;42.680;23.312;2023-05-07T01:05:24;20.80;;;13.18;;
62696;SDS011;48761;42.680;23.312;2023-05-07T01:07:51;18.88;;;12.90;;
62696;SDS011;48761;42.680;23.312;2023-05-07T01:10:20;19.70;;;14.00;;
62696;SDS011;48761;42.680;23.312;2023-05-07T01:12:46;20.25;;;13.23;;
62696;SDS011;48761;42.680;23.312;2023-05-07T01:15:15;18.90;;;12.45;;
62696;SDS011;48761;42.680;23.312;2023-05-07T01:17:41;17.52;;;12.40;;
62696;SDS011;48761;42.680;23.312;2023-05-07T01:20:08;19.77;;;12.35;;
62696;SDS011;48761;42.680;23.312;2023-05-07T01:22:35;17.63;;;12.52;;
62696;SDS011;48761;42.680;23.312;2023-05-07T01:25:03;21.00;;;12.93;;
62696;SDS011;48761;42.680;23.312;2023-05-07T01:27:30;23.77;;;13.27;;
62696;SDS011;48761;42.680;23.312;2023-05-07T01:29:57;23.27;;;14.20;;
62696;SDS011;48761;42.680;23.312;2023-05-07T01:32:28;21.20;;;12.45;;
62696;SDS011;48761;42.680;23.312;2023-05-07T01:35:12;19.70;;;12.02;;
62696;SDS011;48761;42.680;23.312;2023-05-07T01:37:54;19.27;;;12.02;;
62696;SDS011;48761;42.680;23.312;2023-05-07T01:40:20;16.90;;;11.30;;
62696;SDS011;48761;42.680;23.312;2023-05-07T01:42:47;17.65;;;10.23;;
62696;SDS011;48761;42.680;23.312;2023-05-07T01:45:14;13.38;;;9.65;;
62696;SDS011;48761;42.680;23.312;2023-05-07T01:47:40;16.00;;;9.07;;
62696;SDS011;48761;42.680;23.312;2023-05-07T01:50:07;13.45;;;9.55;;
62696;SDS011;48761;42.680;23.312;2023-05-07T01:52:34;12.80;;;8.85;;
62696;SDS011;48761;42.680;23.312;2023-05-07T01:55:01;16.95;;;8.07;;
62696;SDS011;48761;42.680;23.312;2023-05-07T01:57:28;13.88;;;9.00;;
62696;SDS011;48761;42.680;23.312;2023-05-07T01:59:54;16.95;;;10.50;;
62696;SDS011;48761;42.680;23.312;2023-05-07T02:02:19;15.82;;;10.07;;
62696;SDS011;48761;42.680;23.312;2023-05-07T02:04:45;13.48;;;8.90;;
62696;SDS011;48761;42.680;23.312;2023-05-07T02:07:14;13.27;;;7.95;;
62696;SDS011;48761;42.680;23.312;2023-05-07T02:09:40;12.30;;;8.63;;
62696;SDS011;48761;42.680;23.312;2023-05-07T02:12:06;10.13;;;8.10;;
62696;SDS011;48761;42.680;23.312;2023-05-07T02:14:32;14.77;;;7.88;;
62696;SDS011;48761;42.680;23.312;2023-05-07T02:16:58;9.85;;;7.32;;
62696;SDS011;48761;42.680;23.312;2023-05-07T02:19:23;16.67;;;8.07;;
62696;SDS011;48761;42.680;23.312;2023-05-07T02:21:49;12.98;;;8.10;;
62696;SDS011;48761;42.680;23.312;2023-05-07T02:24:16;11.63;;;7.88;;
62696;SDS011;48761;42.680;23.312;2023-05-07T02:26:42;11.43;;;8.38;;
62696;SDS011;48761;42.680;23.312;2023-05-07T02:29:08;15.13;;;8.32;;
62696;SDS011;48761;42.680;23.312;2023-05-07T02:31:34;12.48;;;9.05;;
62696;SDS011;48761;42.680;23.312;2023-05-07T02:34:00;12.68;;;8.68;;
62696;SDS011;48761;42.680;23.312;2023-05-07T02:36:26;13.27;;;9.00;;
62696;SDS011;48761;42.680;23.312;2023-05-07T02:38:52;12.93;;;8.15;;
62696;SDS011;48761;42.680;23.312;2023-05-07T02:41:18;10.90;;;8.02;;
62696;SDS011;48761;42.680;23.312;2023-05-07T02:43:44;14.18;;;8.02;;
62696;SDS011;48761;42.680;23.312;2023-05-07T02:46:10;12.52;;;8.25;;
62696;SDS011;48761;42.680;23.312;2023-05-07T02:48:36;10.15;;;8.13;;
62696;SDS011;48761;42.680;23.312;2023-05-07T02:51:02;12.68;;;7.63;;
62696;SDS011;48761;42.680;23.312;2023-05-07T02:53:29;12.07;;;7.85;;
62696;SDS011;48761;42.680;23.312;2023-05-07T02:55:55;12.57;;;8.27;;
62696;SDS011;48761;42.680;23.312;2023-05-07T02:58:22;12.73;;;9.07;;
62696;SDS011;48761;42.680;23.312;2023-05-07T03:00:48;11.93;;;8.88;;
62696;SDS011;48761;42.680;23.312;2023-05-07T03:03:14;12.23;;;9.05;;
62696;SDS011;48761;42.680;23.312;2023-05-07T03:05:40;15.57;;;9.20;;
62696;SDS011;48761;42.680;23.312;2023-05-07T03:08:07;13.40;;;9.10;;
62696;SDS011;48761;42.680;23.312;2023-05-07T03:10:33;14.10;;;10.02;;
62696;SDS011;48761;42.680;23.312;2023-05-07T03:12:59;19.35;;;10.60;;
62696;SDS011;48761;42.680;23.312;2023-05-07T03:15:26;14.88;;;9.85;;
62696;SDS011;48761;42.680;23.312;2023-05-07T03:17:52;16.35;;;9.52;;
62696;SDS011;48761;42.680;23.312;2023-05-07T03:20:18;16.65;;;10.32;;
62696;SDS011;48761;42.680;23.312;2023-05-07T03:22:44;14.50;;;10.05;;
62696;SDS011;48761;42.680;23.312;2023-05-07T03:25:10;15.20;;;11.07;;
62696;SDS011;48761;42.680;23.312;2023-05-07T03:27:36;18.17;;;11.98;;
62696;SDS011;48761;42.680;23.312;2023-05-07T03:30:02;20.67;;;13.38;;
62696;SDS011;48761;42.680;23.312;2023-05-07T03:32:28;13.63;;;10.20;;
62696;SDS011;48761;42.680;23.312;2023-05-07T03:34:54;19.67;;;11.05;;
62696;SDS011;48761;42.680;23.312;2023-05-07T03:37:20;24.02;;;11.95;;
62696;SDS011;48761;42.680;23.312;2023-05-07T03:39:46;21.40;;;11.40;;
62696;SDS011;48761;42.680;23.312;2023-05-07T03:42:12;18.33;;;11.50;;
62696;SDS011;48761;42.680;23.312;2023-05-07T03:44:38;15.95;;;10.88;;
62696;SDS011;48761;42.680;23.312;2023-05-07T03:47:04;15.98;;;10.82;;
62696;SDS011;48761;42.680;23.312;2023-05-07T03:49:29;15.48;;;10.45;;
62696;SDS011;48761;42.680;23.312;2023-05-07T03:51:55;20.92;;;12.15;;
62696;SDS011;48761;42.680;23.312;2023-05-07T03:54:21;16.30;;;11.00;;
62696;SDS011;48761;42.680;23.312;2023-05-07T03:56:47;16.23;;;10.45;;
62696;SDS011;48761;42.680;23.312;2023-05-07T03:59:13;15.07;;;10.30;;
62696;SDS011;48761;42.680;23.312;2023-05-07T04:01:39;16.95;;;10.85;;
62696;SDS011;48761;42.680;23.312;2023-05-07T04:04:05;14.05;;;10.25;;
62696;SDS011;48761;42.680;23.312;2023-05-07T04:06:31;16.38;;;10.73;;
62696;SDS011;48761;42.680;23.312;2023-05-07T04:08:57;16.75;;;10.35;;
62696;SDS011;48761;42.680;23.312;2023-05-07T04:11:23;14.30;;;9.85;;
62696;SDS011;48761;42.680;23.312;2023-05-07T04:13:49;13.50;;;9.82;;
62696;SDS011;48761;42.680;23.312;2023-05-07T04:16:15;15.75;;;10.75;;
62696;SDS011;48761;42.680;23.312;2023-05-07T04:18:41;15.05;;;10.57;;
62696;SDS011;48761;42.680;23.312;2023-05-07T04:21:17;16.10;;;10.82;;
62696;SDS011;48761;42.680;23.312;2023-05-07T04:23:46;19.02;;;12.48;;
62696;SDS011;48761;42.680;23.312;2023-05-07T04:26:13;27.48;;;18.58;;
62696;SDS011;48761;42.680;23.312;2023-05-07T04:28:39;38.67;;;26.05;;
62696;SDS011;48761;42.680;23.312;2023-05-07T04:31:06;19.48;;;13.75;;
62696;SDS011;48761;42.680;23.312;2023-05-07T04:33:32;18.50;;;11.57;;
62696;SDS011;48761;42.680;23.312;2023-05-07T04:35:58;17.58;;;11.70;;
62696;SDS011;48761;42.680;23.312;2023-05-07T04:38:27;14.38;;;11.25;;
62696;SDS011;48761;42.680;23.312;2023-05-07T04:40:53;17.27;;;10.65;;
62696;SDS011;48761;42.680;23.312;2023-05-07T04:43:19;15.75;;;11.05;;
62696;SDS011;48761;42.680;23.312;2023-05-07T04:45:44;14.27;;;10.88;;
62696;SDS011;48761;42.680;23.312;2023-05-07T04:48:10;14.88;;;10.80;;
62696;SDS011;48761;42.680;23.312;2023-05-07T04:50:36;14.35;;;10.45;;
62696;SDS011;48761;42.680;23.312;2023-05-07T04:53:02;14.88;;;10.20;;
62696;SDS011;48761;42.680;23.312;2023-05-07T04:55:28;13.50;;;10.27;;
62696;SDS011;48761;42.680;23.312;2023-05-07T04:57:54;18.05;;;10.68;;
62696;SDS011;48761;42.680;23.312;2023-05-07T05:00:20;12.93;;;10.00;;
62696;SDS011;48761;42.680;23.312;2023-05-07T05:02:46;10.20;;;8.88;;
62696;SDS011;48761;42.680;23.312;2023-05-07T05:05:12;11.57;;;8.77;;
62696;SDS011;48761;42.680;23.312;2023-05-07T05:07:38;11.95;;;8.35;;
62696;SDS011;48761;42.680;23.312;2023-05-07T05:10:04;14.93;;;10.07;;
62696;SDS011;48761;42.680;23.312;2023-05-07T05:12:31;12.65;;;8.90;;
62696;SDS011;48761;42.680;23.312;2023-05-07T05:14:57;13.50;;;9.48;;
62696;SDS011;48761;42.680;23.312;2023-05-07T05:17:23;10.68;;;8.48;;
62696;SDS011;48761;42.680;23.312;2023-05-07T05:19:49;10.70;;;8.07;;
62696;SDS011;48761;42.680;23.312;2023-05-07T05:22:15;13.70;;;8.95;;
62696;SDS011;48761;42.680;23.312;2023-05-07T05:24:41;13.43;;;9.00;;
62696;SDS011;48761;42.680;23.312;2023-05-07T05:27:07;12.63;;;8.73;;
62696;SDS011;48761;42.680;23.312;2023-05-07T05:29:33;13.38;;;9.43;;
62696;SDS011;48761;42.680;23.312;2023-05-07T05:31:59;13.32;;;8.15;;
62696;SDS011;48761;42.680;23.312;2023-05-07T05:34:25;11.52;;;8.95;;
62696;SDS011;48761;42.680;23.312;2023-05-07T05:36:51;14.30;;;9.60;;
62696;SDS011;48761;42.680;23.312;2023-05-07T05:39:17;11.63;;;8.23;;
62696;SDS011;48761;42.680;23.312;2023-05-07T05:41:42;12.27;;;8.73;;
62696;SDS011;48761;42.680;23.312;2023-05-07T05:44:08;12.63;;;9.02;;
62696;SDS011;48761;42.680;23.312;2023-05-07T05:46:34;11.93;;;9.65;;
62696;SDS011;48761;42.680;23.312;2023-05-07T05:49:00;14.32;;;9.48;;
62696;SDS011;48761;42.680;23.312;2023-05-07T05:51:26;13.45;;;9.23;;
62696;SDS011;48761;42.680;23.312;2023-05-07T05:53:52;15.75;;;9.77;;
62696;SDS011;48761;42.680;23.312;2023-05-07T05:56:18;13.50;;;9.50;;
62696;SDS011;48761;42.680;23.312;2023-05-07T05:58:45;13.02;;;9.23;;
62696;SDS011;48761;42.680;23.312;2023-05-07T06:01:11;11.90;;;9.88;;
62696;SDS011;48761;42.680;23.312;2023-05-07T06:03:37;15.60;;;10.13;;
62696;SDS011;48761;42.680;23.312;2023-05-07T06:06:03;13.52;;;10.18;;
62696;SDS011;48761;42.680;23.312;2023-05-07T06:08:29;13.85;;;9.43;;
62696;SDS011;48761;42.680;23.312;2023-05-07T06:10:55;13.27;;;9.80;;
62696;SDS011;48761;42.680;23.312;2023-05-07T06:13:22;13.15;;;9.02;;
62696;SDS011;48761;42.680;23.312;2023-05-07T06:15:48;13.35;;;9.95;;
62696;SDS011;48761;42.680;23.312;2023-05-07T06:18:15;12.48;;;9.10;;
62696;SDS011;48761;42.680;23.312;2023-05-07T06:20:40;12.88;;;9.02;;
62696;SDS011;48761;42.680;23.312;2023-05-07T06:23:07;14.45;;;10.07;;
62696;SDS011;48761;42.680;23.312;2023-05-07T06:25:33;12.88;;;10.70;;
62696;SDS011;48761;42.680;23.312;2023-05-07T06:27:59;13.85;;;9.70;;
62696;SDS011;48761;42.680;23.312;2023-05-07T06:30:25;15.07;;;9.18;;
62696;SDS011;48761;42.680;23.312;2023-05-07T06:32:51;15.25;;;9.90;;
62696;SDS011;48761;42.680;23.312;2023-05-07T06:35:17;13.15;;;9.00;;
62696;SDS011;48761;42.680;23.312;2023-05-07T06:37:44;12.95;;;9.15;;
62696;SDS011;48761;42.680;23.312;2023-05-07T06:40:10;14.48;;;9.65;;
62696;SDS011;48761;42.680;23.312;2023-05-07T06:42:36;23.48;;;16.55;;
62696;SDS011;48761;42.680;23.312;2023-05-07T06:45:02;12.73;;;9.00;;
62696;SDS011;48761;42.680;23.312;2023-05-07T06:47:29;11.70;;;8.88;;
62696;SDS011;48761;42.680;23.312;2023-05-07T06:49:56;13.82;;;8.93;;
62696;SDS011;48761;42.680;23.312;2023-05-07T06:52:22;10.95;;;8.60;;
62696;SDS011;48761;42.680;23.312;2023-05-07T06:54:48;11.93;;;8.20;;
62696;SDS011;48761;42.680;23.312;2023-05-07T06:57:14;12.75;;;8.82;;
62696;SDS011;48761;42.680;23.312;2023-05-07T06:59:40;13.05;;;7.40;;
62696;SDS011;48761;42.680;23.312;2023-05-07T07:02:06;12.85;;;8.20;;
62696;SDS011;48761;42.680;23.312;2023-05-07T07:04:33;12.35;;;7.50;;
62696;SDS011;48761;42.680;23.312;2023-05-07T07:06:59;11.75;;;8.05;;
62696;SDS011;48761;42.680;23.312;2023-05-07T07:09:24;10.27;;;8.00;;
62696;SDS011;48761;42.680;23.312;2023-05-07T07:11:50;12.68;;;9.25;;
62696;SDS011;48761;42.680;23.312;2023-05-07T07:14:16;10.15;;;8.25;;
62696;SDS011;48761;42.680;23.312;2023-05-07T07:16:42;11.63;;;8.00;;
62696;SDS011;48761;42.680;23.312;2023-05-07T07:19:08;12.65;;;8.60;;
62696;SDS011;48761;42.680;23.312;2023-05-07T07:21:34;18.50;;;8.25;;
62696;SDS011;48761;42.680;23.312;2023-05-07T07:24:00;10.30;;;7.90;;
62696;SDS011;48761;42.680;23.312;2023-05-07T07:26:26;13.05;;;9.27;;
62696;SDS011;48761;42.680;23.312;2023-05-07T07:28:52;14.88;;;9.32;;
62696;SDS011;48761;42.680;23.312;2023-05-07T07:31:18;11.75;;;8.43;;
62696;SDS011;48761;42.680;23.312;2023-05-07T07:33:44;12.55;;;8.15;;
62696;SDS011;48761;42.680;23.312;2023-05-07T07:36:10;12.07;;;8.50;;
62696;SDS011;48761;42.680;23.312;2023-05-07T07:38:36;9.82;;;7.35;;
62696;SDS011;48761;42.680;23.312;2023-05-07T07:41:02;12.02;;;8.18;;
62696;SDS011;48761;42.680;23.312;2023-05-07T07:43:28;10.07;;;7.15;;
62696;SDS011;48761;42.680;23.312;2023-05-07T07:45:54;15.75;;;7.88;;
62696;SDS011;48761;42.680;23.312;2023-05-07T07:48:19;13.07;;;9.00;;
62696;SDS011;48761;42.680;23.312;2023-05-07T07:50:48;11.25;;;8.50;;
62696;SDS011;48761;42.680;23.312;2023-05-07T07:53:14;10.77;;;8.27;;
62696;SDS011;48761;42.680;23.312;2023-05-07T07:55:40;12.27;;;7.47;;
62696;SDS011;48761;42.680;23.312;2023-05-07T07:58:06;12.95;;;8.50;;
62696;SDS011;48761;42.680;23.312;2023-05-07T08:00:32;10.65;;;7.45;;
62696;SDS011;48761;42.680;23.312;2023-05-07T08:02:58;11.60;;;7.85;;
62696;SDS011;48761;42.680;23.312;2023-05-07T08:05:24;12.13;;;8.30;;
62696;SDS011;48761;42.680;23.312;2023-05-07T08:07:50;15.05;;;8.70;;
62696;SDS011;48761;42.680;23.312;2023-05-07T08:10:16;12.73;;;8.35;;
62696;SDS011;48761;42.680;23.312;2023-05-07T08:12:42;12.52;;;8.50;;
62696;SDS011;48761;42.680;23.312;2023-05-07T08:15:08;12.93;;;7.45;;
62696;SDS011;48761;42.680;23.312;2023-05-07T08:17:34;15.07;;;7.65;;
62696;SDS011;48761;42.680;23.312;2023-05-07T08:20:00;11.27;;;7.13;;
62696;SDS011;48761;42.680;23.312;2023-05-07T08:22:26;10.73;;;7.53;;
62696;SDS011;48761;42.680;23.312;2023-05-07T08:24:52;10.95;;;7.10;;
62696;SDS011;48761;42.680;23.312;2023-05-07T08:27:18;10.75;;;7.47;;
62696;SDS011;48761;42.680;23.312;2023-05-07T08:29:44;11.25;;;6.90;;
62696;SDS011;48761;42.680;23.312;2023-05-07T08:32:09;15.18;;;7.30;;
62696;SDS011;48761;42.680;23.312;2023-05-07T08:34:35;12.80;;;6.93;;
62696;SDS011;48761;42.680;23.312;2023-05-07T08:37:01;11.57;;;6.85;;
62696;SDS011;48761;42.680;23.312;2023-05-07T08:39:27;10.60;;;6.65;;
62696;SDS011;48761;42.680;23.312;2023-05-07T08:41:54;14.98;;;8.35;;
62696;SDS011;48761;42.680;23.312;2023-05-07T08:44:20;13.55;;;8.52;;
62696;SDS011;48761;42.680;23.312;2023-05-07T08:46:48;13.85;;;7.95;;
62696;SDS011;48761;42.680;23.312;2023-05-07T08:49:17;11.15;;;7.78;;
62696;SDS011;48761;42.680;23.312;2023-05-07T08:51:43;12.40;;;7.15;;
62696;SDS011;48761;42.680;23.312;2023-05-07T08:54:09;11.07;;;7.25;;
62696;SDS011;48761;42.680;23.312;2023-05-07T08:56:36;16.40;;;7.68;;
62696;SDS011;48761;42.680;23.312;2023-05-07T08:59:02;10.55;;;7.05;;
62696;SDS011;48761;42.680;23.312;2023-05-07T09:01:28;9.38;;;6.75;;
62696;SDS011;48761;42.680;23.312;2023-05-07T09:03:54;10.38;;;6.70;;
62696;SDS011;48761;42.680;23.312;2023-05-07T09:06:20;9.85;;;7.05;;
62696;SDS011;48761;42.680;23.312;2023-05-07T09:08:53;9.77;;;6.95;;
62696;SDS011;48761;42.680;23.312;2023-05-07T09:11:23;9.20;;;7.05;;
62696;SDS011;48761;42.680;23.312;2023-05-07T09:13:55;9.63;;;6.88;;
62696;SDS011;48761;42.680;23.312;2023-05-07T09:16:23;8.13;;;7.00;;
62696;SDS011;48761;42.680;23.312;2023-05-07T09:18:52;9.85;;;6.70;;
62696;SDS011;48761;42.680;23.312;2023-05-07T09:21:19;9.95;;;5.97;;
62696;SDS011;48761;42.680;23.312;2023-05-07T09:23:52;8.13;;;5.95;;
62696;SDS011;48761;42.680;23.312;2023-05-07T09:26:23;15.73;;;12.02;;
62696;SDS011;48761;42.680;23.312;2023-05-07T09:28:50;10.27;;;6.45;;
62696;SDS011;48761;42.680;23.312;2023-05-07T09:31:17;9.60;;;5.72;;
62696;SDS011;48761;42.680;23.312;2023-05-07T09:33:43;9.10;;;6.03;;
62696;SDS011;48761;42.680;23.312;2023-05-07T09:36:09;7.78;;;5.75;;
62696;SDS011;48761;42.680;23.312;2023-05-07T09:38:36;7.60;;;5.10;;
62696;SDS011;48761;42.680;23.312;2023-05-07T09:41:04;11.00;;;5.10;;
62696;SDS011;48761;42.680;23.312;2023-05-07T09:43:35;7.27;;;4.87;;
62696;SDS011;48761;42.680;23.312;2023-05-07T09:46:14;6.18;;;4.38;;
62696;SDS011;48761;42.680;23.312;2023-05-07T09:48:42;7.85;;;4.35;;
62696;SDS011;48761;42.680;23.312;2023-05-07T09:51:30;8.23;;;5.32;;
62696;SDS011;48761;42.680;23.312;2023-05-07T09:53:59;8.30;;;4.10;;
62696;SDS011;48761;42.680;23.312;2023-05-07T09:56:27;6.00;;;4.70;;
62696;SDS011;48761;42.680;23.312;2023-05-07T09:58:54;8.80;;;5.95;;
62696;SDS011;48761;42.680;23.312;2023-05-07T10:01:23;9.45;;;5.00;;
62696;SDS011;48761;42.680;23.312;2023-05-07T10:03:50;8.50;;;4.70;;
62696;SDS011;48761;42.680;23.312;2023-05-07T10:06:17;5.57;;;3.85;;
62696;SDS011;48761;42.680;23.312;2023-05-07T10:08:45;7.70;;;4.43;;
62696;SDS011;48761;42.680;23.312;2023-05-07T10:11:12;9.35;;;4.60;;
62696;SDS011;48761;42.680;23.312;2023-05-07T10:13:38;5.75;;;4.43;;
62696;SDS011;48761;42.680;23.312;2023-05-07T10:16:04;6.03;;;4.45;;
62696;SDS011;48761;42.680;23.312;2023-05-07T10:18:31;6.82;;;4.03;;
62696;SDS011;48761;42.680;23.312;2023-05-07T10:21:16;6.40;;;4.20;;
62696;SDS011;48761;42.680;23.312;2023-05-07T10:23:45;8.60;;;5.07;;
62696;SDS011;48761;42.680;23.312;2023-05-07T10:26:13;7.53;;;4.68;;
62696;SDS011;48761;42.680;23.312;2023-05-07T10:28:42;7.85;;;4.82;;
62696;SDS011;48761;42.680;23.312;2023-05-07T10:31:25;7.32;;;4.47;;
62696;SDS011;48761;42.680;23.312;2023-05-07T10:34:11;8.02;;;4.38;;
62696;SDS011;48761;42.680;23.312;2023-05-07T10:36:40;10.73;;;4.25;;
62696;SDS011;48761;42.680;23.312;2023-05-07T10:39:06;8.18;;;4.15;;
62696;SDS011;48761;42.680;23.312;2023-05-07T10:41:32;6.00;;;3.75;;
62696;SDS011;48761;42.680;23.312;2023-05-07T10:43:59;6.10;;;3.65;;
62696;SDS011;48761;42.680;23.312;2023-05-07T10:46:25;6.57;;;3.85;;
62696;SDS011;48761;42.680;23.312;2023-05-07T10:51:26;11.68;;;6.85;;
62696;SDS011;48761;42.680;23.312;2023-05-07T10:56:48;6.03;;;4.13;;
62696;SDS011;48761;42.680;23.312;2023-05-07T11:02:00;8.10;;;4.45;;
62696;SDS011;48761;42.680;23.312;2023-05-07T11:04:27;9.38;;;5.72;;
62696;SDS011;48761;42.680;23.312;2023-05-07T11:15:12;6.40;;;4.30;;
62696;SDS011;48761;42.680;23.312;2023-05-07T11:17:55;8.48;;;4.40;;
62696;SDS011;48761;42.680;23.312;2023-05-07T11:26:05;6.72;;;4.00;;
62696;SDS011;48761;42.680;23.312;2023-05-07T11:28:36;7.00;;;4.45;;
62696;SDS011;48761;42.680;23.312;2023-05-07T11:31:03;6.37;;;4.20;;
62696;SDS011;48761;42.680;23.312;2023-05-07T11:33:32;6.93;;;4.60;;
62696;SDS011;48761;42.680;23.312;2023-05-07T11:35:59;7.07;;;4.20;;
62696;SDS011;48761;42.680;23.312;2023-05-07T11:38:27;6.25;;;4.25;;
62696;SDS011;48761;42.680;23.312;2023-05-07T11:40:58;6.15;;;4.45;;
62696;SDS011;48761;42.680;23.312;2023-05-07T11:43:25;7.07;;;3.97;;
62696;SDS011;48761;42.680;23.312;2023-05-07T11:45:51;5.90;;;3.85;;
62696;SDS011;48761;42.680;23.312;2023-05-07T11:48:17;6.05;;;3.80;;
62696;SDS011;48761;42.680;23.312;2023-05-07T11:53:27;5.15;;;3.42;;
62696;SDS011;48761;42.680;23.312;2023-05-07T11:56:00;6.88;;;3.67;;
62696;SDS011;48761;42.680;23.312;2023-05-07T11:58:31;5.05;;;3.50;;
62696;SDS011;48761;42.680;23.312;2023-05-07T12:00:57;6.82;;;3.97;;
62696;SDS011;48761;42.680;23.312;2023-05-07T12:03:23;6.53;;;3.60;;
62696;SDS011;48761;42.680;23.312;2023-05-07T12:05:49;6.10;;;3.42;;
62696;SDS011;48761;42.680;23.312;2023-05-07T12:08:15;8.77;;;3.65;;
62696;SDS011;48761;42.680;23.312;2023-05-07T12:10:42;6.63;;;4.18;;
62696;SDS011;48761;42.680;23.312;2023-05-07T12:13:16;6.25;;;3.67;;
62696;SDS011;48761;42.680;23.312;2023-05-07T12:15:51;4.78;;;3.75;;
62696;SDS011;48761;42.680;23.312;2023-05-07T12:18:17;4.32;;;3.30;;
62696;SDS011;48761;42.680;23.312;2023-05-07T12:20:44;5.55;;;3.15;;
62696;SDS011;48761;42.680;23.312;2023-05-07T12:23:10;5.20;;;3.83;;
62696;SDS011;48761;42.680;23.312;2023-05-07T12:25:40;5.50;;;3.25;;
62696;SDS011;48761;42.680;23.312;2023-05-07T12:28:07;3.67;;;2.63;;
62696;SDS011;48761;42.680;23.312;2023-05-07T12:30:39;3.67;;;2.67;;
62696;SDS011;48761;42.680;23.312;2023-05-07T12:33:06;4.53;;;2.47;;
62696;SDS011;48761;42.680;23.312;2023-05-07T12:35:35;3.85;;;2.50;;
62696;SDS011;48761;42.680;23.312;2023-05-07T12:38:03;8.65;;;2.83;;
62696;SDS011;48761;42.680;23.312;2023-05-07T12:40:41;4.93;;;2.95;;
62696;SDS011;48761;42.680;23.312;2023-05-07T12:43:15;3.35;;;2.75;;
62696;SDS011;48761;42.680;23.312;2023-05-07T12:45:52;3.60;;;2.80;;
62696;SDS011;48761;42.680;23.312;2023-05-07T12:48:20;3.15;;;2.80;;
62696;SDS011;48761;42.680;23.312;2023-05-07T12:50:50;3.40;;;2.63;;
62696;SDS011;48761;42.680;23.312;2023-05-07T12:53:21;4.15;;;2.88;;
62696;SDS011;48761;42.680;23.312;2023-05-07T12:55:49;3.92;;;2.60;;
62696;SDS011;48761;42.680;23.312;2023-05-07T12:58:18;4.07;;;2.85;;
62696;SDS011;48761;42.680;23.312;2023-05-07T13:00:49;4.20;;;2.88;;
62696;SDS011;48761;42.680;23.312;2023-05-07T13:03:28;4.90;;;3.05;;
62696;SDS011;48761;42.680;23.312;2023-05-07T13:06:00;4.38;;;2.97;;
62696;SDS011;48761;42.680;23.312;2023-05-07T13:08:29;4.22;;;2.67;;
62696;SDS011;48761;42.680;23.312;2023-05-07T13:11:00;3.47;;;2.33;;
62696;SDS011;48761;42.680;23.312;2023-05-07T13:13:27;4.70;;;2.75;;
62696;SDS011;48761;42.680;23.312;2023-05-07T13:15:53;3.97;;;2.78;;
62696;SDS011;48761;42.680;23.312;2023-05-07T13:18:19;4.28;;;2.88;;
62696;SDS011;48761;42.680;23.312;2023-05-07T13:20:45;7.00;;;2.88;;
62696;SDS011;48761;42.680;23.312;2023-05-07T13:23:11;5.32;;;3.10;;
62696;SDS011;48761;42.680;23.312;2023-05-07T13:25:37;4.15;;;3.15;;
62696;SDS011;48761;42.680;23.312;2023-05-07T13:28:03;4.85;;;3.15;;
62696;SDS011;48761;42.680;23.312;2023-05-07T13:30:29;5.15;;;3.13;;
62696;SDS011;48761;42.680;23.312;2023-05-07T13:32:55;4.43;;;3.38;;
62696;SDS011;48761;42.680;23.312;2023-05-07T13:35:21;6.80;;;3.50;;
62696;SDS011;48761;42.680;23.312;2023-05-07T13:37:47;5.65;;;3.63;;
62696;SDS011;48761;42.680;23.312;2023-05-07T13:40:13;3.70;;;3.00;;
62696;SDS011;48761;42.680;23.312;2023-05-07T13:42:39;6.82;;;3.42;;
62696;SDS011;48761;42.680;23.312;2023-05-07T13:45:05;5.13;;;3.00;;
62696;SDS011;48761;42.680;23.312;2023-05-07T13:47:32;6.00;;;3.33;;
62696;SDS011;48761;42.680;23.312;2023-05-07T13:49:58;4.93;;;3.28;;
62696;SDS011;48761;42.680;23.312;2023-05-07T13:52:24;5.28;;;3.10;;
62696;SDS011;48761;42.680;23.312;2023-05-07T13:54:49;6.32;;;3.72;;
62696;SDS011;48761;42.680;23.312;2023-05-07T13:57:15;3.72;;;2.55;;
62696;SDS011;48761;42.680;23.312;2023-05-07T13:59:42;15.90;;;6.28;;
62696;SDS011;48761;42.680;23.312;2023-05-07T14:02:08;13.68;;;4.35;;
62696;SDS011;48761;42.680;23.312;2023-05-07T14:04:34;4.28;;;2.70;;
62696;SDS011;48761;42.680;23.312;2023-05-07T14:07:00;3.20;;;2.67;;
62696;SDS011;48761;42.680;23.312;2023-05-07T14:09:26;4.10;;;3.15;;
62696;SDS011;48761;42.680;23.312;2023-05-07T14:11:52;4.45;;;3.00;;
62696;SDS011;48761;42.680;23.312;2023-05-07T14:14:18;4.03;;;3.20;;
62696;SDS011;48761;42.680;23.312;2023-05-07T14:16:44;4.28;;;3.33;;
62696;SDS011;48761;42.680;23.312;2023-05-07T14:19:13;6.35;;;3.58;;
62696;SDS011;48761;42.680;23.312;2023-05-07T14:21:39;3.90;;;3.08;;
62696;SDS011;48761;42.680;23.312;2023-05-07T14:24:06;4.05;;;3.03;;
62696;SDS011;48761;42.680;23.312;2023-05-07T14:26:33;3.47;;;2.63;;
62696;SDS011;48761;42.680;23.312;2023-05-07T14:28:59;5.03;;;2.83;;
62696;SDS011;48761;42.680;23.312;2023-05-07T14:31:24;6.57;;;2.85;;
62696;SDS011;48761;42.680;23.312;2023-05-07T14:33:51;3.70;;;2.95;;
62696;SDS011;48761;42.680;23.312;2023-05-07T14:36:17;8.13;;;3.10;;
62696;SDS011;48761;42.680;23.312;2023-05-07T14:38:43;3.83;;;2.88;;
62696;SDS011;48761;42.680;23.312;2023-05-07T14:41:09;4.32;;;3.15;;
62696;SDS011;48761;42.680;23.312;2023-05-07T14:43:35;7.28;;;3.45;;
62696;SDS011;48761;42.680;23.312;2023-05-07T14:46:01;5.93;;;3.05;;
62696;SDS011;48761;42.680;23.312;2023-05-07T14:48:27;4.53;;;3.00;;